Time;durP1;ratioP1;P1;durP2;ratioP2;P2;SDS_P1;SDS_P2;PMS_P1;PMS_P2;Temp;Humidity;BMP_temperature;BMP_pressure;BME280_temperature;BME280_humidity;BME280_pressure;Samples;Min_cycle;Max_cycle;Signal;HPM_P1;HPM_P2
2021/04/27 00:01:15;;;;;;;3.33;1.70;;;7.70;42.80;;;;;;6234965;28;20053;-77
2021/04/27 00:04:17;;;;;;;4.35;1.75;;;7.70;43.00;;;;;;6234136;28;20121;-78
2021/04/27 00:07:18;;;;;;;7.38;1.75;;;7.70;43.30;;;;;;6234479;28;20085;-79
2021/04/27 00:10:21;;;;;;;2.00;1.80;;;7.60;43.40;;;;;;6235116;28;20062;-79
2021/04/27 00:13:23;;;;;;;3.85;2.53;;;7.50;43.50;;;;;;6233893;28;20611;-80
2021/04/27 00:16:25;;;;;;;5.10;2.38;;;7.60;43.70;;;;;;6234374;28;20507;-79
2021/04/27 00:19:26;;;;;;;2.88;2.13;;;7.60;43.80;;;;;;6235052;28;20603;-79
2021/04/27 00:22:28;;;;;;;2.70;2.50;;;7.50;44.10;;;;;;6235577;28;20061;-79
2021/04/27 00:25:29;;;;;;;2.22;2.03;;;7.40;44.50;;;;;;6236249;28;20046;-79
2021/04/27 00:28:30;;;;;;;6.10;4.93;;;7.40;44.90;;;;;;6237712;28;20455;-79
2021/04/27 00:31:33;;;;;;;2.50;2.22;;;7.30;45.10;;;;;;6236244;28;20172;-76
2021/04/27 00:34:35;;;;;;;2.38;2.17;;;7.20;45.40;;;;;;6232576;28;20078;-78
2021/04/27 00:37:36;;;;;;;3.95;2.42;;;7.20;45.40;;;;;;6241889;28;20050;-77
2021/04/27 00:40:38;;;;;;;3.35;2.10;;;7.20;45.60;;;;;;6242515;28;20073;-79
2021/04/27 00:43:39;;;;;;;4.10;1.88;;;7.10;45.80;;;;;;6231601;28;20073;-78
2021/04/27 00:46:41;;;;;;;3.83;2.10;;;7.10;45.80;;;;;;6232548;28;20197;-78
2021/04/27 00:49:42;;;;;;;5.00;2.38;;;7.00;46.00;;;;;;6233569;28;20092;-77
2021/04/27 00:52:45;;;;;;;4.50;2.60;;;7.00;46.20;;;;;;6229943;28;20069;-77
2021/04/27 00:55:46;;;;;;;4.57;2.35;;;7.00;46.40;;;;;;6228774;28;20112;-78
2021/04/27 00:58:48;;;;;;;2.25;2.05;;;6.90;46.60;;;;;;6231847;28;20124;-79
2021/04/27 01:01:50;;;;;;;3.05;2.00;;;6.90;46.70;;;;;;6233707;28;20420;-78
2021/04/27 01:04:51;;;;;;;7.38;2.75;;;6.90;46.80;;;;;;6232298;28;20052;-78
2021/04/27 01:08:00;;;;;;;5.05;2.53;;;6.90;47.00;;;;;;6231126;28;20103;-79
2021/04/27 01:11:15;;;;;;;5.68;3.30;;;6.80;47.10;;;;;;6232595;28;20072;-78
2021/04/27 01:14:26;;;;;;;4.75;2.47;;;6.80;47.30;;;;;;6231295;28;20050;-78
2021/04/27 01:17:28;;;;;;;2.80;2.53;;;6.70;47.50;;;;;;6232490;28;20704;-79
2021/04/27 01:20:39;;;;;;;2.40;2.20;;;6.70;47.60;;;;;;6230630;28;20060;-78
2021/04/27 01:23:59;;;;;;;4.43;3.72;;;6.70;47.70;;;;;;6232093;28;20081;-79
2021/04/27 01:27:03;;;;;;;2.40;2.20;;;6.70;47.80;;;;;;6231341;28;20096;-78
2021/04/27 01:30:06;;;;;;;3.22;2.40;;;6.70;48.00;;;;;;6230766;28;20556;-79
2021/04/27 01:33:08;;;;;;;8.80;3.97;;;6.70;48.20;;;;;;6230729;28;20121;-78
2021/04/27 01:36:11;;;;;;;5.25;2.60;;;6.60;48.30;;;;;;6231001;28;20548;-79
2021/04/27 01:39:12;;;;;;;14.07;3.33;;;6.60;48.40;;;;;;6231093;28;20101;-78
2021/04/27 01:42:15;;;;;;;3.10;2.67;;;6.60;48.60;;;;;;6230051;28;20058;-79
2021/04/27 01:45:17;;;;;;;3.65;2.28;;;6.60;48.70;;;;;;6229970;28;20574;-79
2021/04/27 01:48:20;;;;;;;3.10;2.50;;;6.60;48.90;;;;;;6230262;28;20547;-78
2021/04/27 01:51:21;;;;;;;3.42;2.35;;;6.50;49.20;;;;;;6229632;28;20056;-78
2021/04/27 01:54:23;;;;;;;5.20;3.17;;;6.50;49.40;;;;;;6230671;28;20054;-78
2021/04/27 01:57:26;;;;;;;5.95;2.33;;;6.50;49.60;;;;;;6230278;28;20129;-78
2021/04/27 02:00:27;;;;;;;5.15;2.63;;;6.40;49.80;;;;;;6228942;28;20054;-79
2021/04/27 02:03:28;;;;;;;4.57;2.80;;;6.40;50.20;;;;;;6230490;28;20526;-78
2021/04/27 02:06:30;;;;;;;5.50;2.67;;;6.30;50.40;;;;;;6229745;28;20073;-78
2021/04/27 02:09:32;;;;;;;4.75;2.70;;;6.30;50.60;;;;;;6230080;28;20543;-79
2021/04/27 02:12:36;;;;;;;6.03;3.17;;;6.30;50.70;;;;;;6230482;28;20049;-79
2021/04/27 02:15:38;;;;;;;4.50;3.20;;;6.30;50.80;;;;;;6230874;28;20085;-77
2021/04/27 02:18:46;;;;;;;2.28;2.03;;;6.20;51.00;;;;;;6230653;28;20077;-79
2021/04/27 02:21:47;;;;;;;3.30;3.10;;;6.20;51.10;;;;;;6230328;28;20177;-79
2021/04/27 02:24:49;;;;;;;3.67;2.42;;;6.20;51.10;;;;;;6229686;28;20041;-79
2021/04/27 02:27:52;;;;;;;3.25;2.67;;;6.20;51.70;;;;;;6230436;28;20081;-78
2021/04/27 02:30:54;;;;;;;2.92;2.67;;;6.20;51.20;;;;;;6229484;28;20140;-78
2021/04/27 02:33:55;;;;;;;5.95;2.85;;;6.20;51.20;;;;;;6228979;28;20068;-79
2021/04/27 02:36:57;;;;;;;4.18;2.50;;;6.20;51.90;;;;;;6229866;28;20069;-78
2021/04/27 02:39:58;;;;;;;5.43;3.97;;;6.20;51.50;;;;;;6229484;28;20548;-79
2021/04/27 02:43:01;;;;;;;6.18;3.20;;;6.20;51.50;;;;;;6229578;28;20152;-78
2021/04/27 02:46:02;;;;;;;4.72;3.00;;;6.10;51.50;;;;;;6230134;28;20104;-78
2021/04/27 02:49:04;;;;;;;5.88;3.10;;;6.10;51.60;;;;;;6229326;28;20057;-78
2021/04/27 02:52:06;;;;;;;3.35;2.50;;;6.10;51.70;;;;;;6230922;28;20046;-78
2021/04/27 02:55:09;;;;;;;3.90;3.42;;;6.10;51.80;;;;;;6229981;28;20536;-78
2021/04/27 02:58:11;;;;;;;2.30;2.10;;;6.10;51.90;;;;;;6229383;28;20056;-79
2021/04/27 03:01:13;;;;;;;2.63;2.33;;;6.10;51.80;;;;;;6228547;28;20123;-78
2021/04/27 03:04:14;;;;;;;5.15;3.42;;;6.10;52.10;;;;;;6228320;28;20073;-78
2021/04/27 03:07:16;;;;;;;3.08;2.53;;;6.10;52.10;;;;;;6229837;28;20049;-78
2021/04/27 03:10:18;;;;;;;2.53;2.28;;;6.10;52.60;;;;;;6228595;28;20174;-79
2021/04/27 03:13:21;;;;;;;5.15;2.83;;;6.10;52.30;;;;;;6229685;28;20100;-79
2021/04/27 03:16:23;;;;;;;5.63;3.03;;;6.00;52.40;;;;;;6228744;28;20138;-79
2021/04/27 03:19:24;;;;;;;2.78;2.40;;;6.00;52.50;;;;;;6228118;28;20054;-79
2021/04/27 03:22:26;;;;;;;3.65;3.20;;;6.00;52.60;;;;;;6227557;28;20065;-79
2021/04/27 03:25:27;;;;;;;3.45;2.55;;;6.00;52.60;;;;;;6227947;28;20532;-79
2021/04/27 03:28:30;;;;;;;4.43;2.92;;;6.00;52.80;;;;;;6228588;28;20119;-77
2021/04/27 03:31:32;;;;;;;2.38;2.17;;;6.00;52.90;;;;;;6228445;28;20049;-77
2021/04/27 03:34:34;;;;;;;3.15;2.78;;;6.00;52.90;;;;;;6228676;28;20145;-79
2021/04/27 03:37:35;;;;;;;3.30;2.65;;;5.90;53.60;;;;;;6229228;28;20141;-79
2021/04/27 03:40:37;;;;;;;3.70;2.22;;;5.90;53.20;;;;;;6228448;28;20408;-79
2021/04/27 03:43:39;;;;;;;5.70;2.75;;;5.90;53.40;;;;;;6228581;28;20117;-79
2021/04/27 03:46:40;;;;;;;4.85;2.53;;;5.80;53.90;;;;;;6229733;28;20472;-78
2021/04/27 03:49:42;;;;;;;6.18;2.67;;;5.90;53.70;;;;;;6230252;28;20072;-78
2021/04/27 03:52:44;;;;;;;4.22;3.20;;;5.80;53.80;;;;;;6229862;28;20127;-78
2021/04/27 03:55:45;;;;;;;2.97;2.42;;;5.80;53.90;;;;;;6228001;28;20475;-80
2021/04/27 03:58:47;;;;;;;4.93;3.20;;;5.80;54.10;;;;;;6227377;28;20132;-79
2021/04/27 04:01:49;;;;;;;5.18;2.70;;;5.70;54.20;;;;;;6227617;28;20453;-80
2021/04/27 04:04:50;;;;;;;4.03;3.35;;;5.70;54.40;;;;;;6227296;28;20727;-79
2021/04/27 04:07:51;;;;;;;3.55;2.25;;;5.70;54.50;;;;;;6229789;28;20077;-79
2021/04/27 04:10:53;;;;;;;4.10;3.33;;;5.60;54.60;;;;;;6227570;28;20137;-78
2021/04/27 04:13:55;;;;;;;4.40;3.28;;;5.60;54.90;;;;;;6229303;28;20058;-80
2021/04/27 04:16:56;;;;;;;4.90;3.05;;;5.60;55.10;;;;;;6232525;28;20128;-79
2021/04/27 04:19:59;;;;;;;2.88;2.67;;;5.60;55.20;;;;;;6233280;28;20456;-80
2021/04/27 04:23:01;;;;;;;4.95;3.05;;;5.60;55.30;;;;;;6233395;28;20452;-79
2021/04/27 04:26:02;;;;;;;6.75;3.25;;;5.60;55.40;;;;;;6232600;28;20065;-79
2021/04/27 04:29:05;;;;;;;5.38;2.38;;;5.50;55.50;;;;;;6231683;28;20041;-79
2021/04/27 04:32:09;;;;;;;4.53;3.08;;;5.60;55.60;;;;;;6232785;28;20120;-79
2021/04/27 04:35:13;;;;;;;5.40;2.88;;;5.60;55.70;;;;;;6232466;28;20046;-79
2021/04/27 04:38:17;;;;;;;3.63;2.97;;;5.50;55.60;;;;;;6249328;28;20058;-79
2021/04/27 04:41:18;;;;;;;3.72;3.42;;;5.50;56.30;;;;;;6230663;28;20072;-78
2021/04/27 04:44:21;;;;;;;8.32;2.38;;;5.60;56.00;;;;;;6231309;28;20157;-78
2021/04/27 04:47:22;;;;;;;3.25;2.60;;;5.60;55.90;;;;;;6231887;28;20077;-79
2021/04/27 04:50:23;;;;;;;4.72;2.22;;;5.60;55.80;;;;;;6230753;28;20065;-79
2021/04/27 04:53:25;;;;;;;3.30;2.85;;;5.60;55.80;;;;;;6231419;28;20073;-79
2021/04/27 04:56:26;;;;;;;7.50;3.72;;;5.70;55.70;;;;;;6230340;28;20077;-80
2021/04/27 04:59:28;;;;;;;2.78;2.53;;;5.70;56.40;;;;;;6231765;28;20149;-79
2021/04/27 05:02:30;;;;;;;4.80;2.92;;;5.80;56.00;;;;;;6230933;28;20138;-80
2021/04/27 05:05:31;;;;;;;7.60;3.83;;;5.80;55.50;;;;;;6231492;28;20061;-79
2021/04/27 05:08:34;;;;;;;3.85;3.47;;;5.90;55.60;;;;;;6230729;28;20085;-78
2021/04/27 05:11:36;;;;;;;5.38;3.38;;;6.00;55.10;;;;;;6231395;28;20057;-79
2021/04/27 05:14:40;;;;;;;5.20;2.70;;;6.00;55.00;;;;;;6231318;28;20049;-79
2021/04/27 05:17:42;;;;;;;3.72;2.80;;;6.10;54.70;;;;;;6230350;28;20128;-79
2021/04/27 05:20:45;;;;;;;3.25;2.83;;;6.20;54.80;;;;;;6230360;28;20072;-78
2021/04/27 05:23:47;;;;;;;5.78;3.17;;;6.30;54.40;;;;;;6229948;28;20049;-78
2021/04/27 05:26:48;;;;;;;3.38;3.10;;;6.40;54.80;;;;;;6229588;28;20144;-79
2021/04/27 05:29:51;;;;;;;3.92;3.25;;;6.50;53.90;;;;;;6229513;28;20120;-78
2021/04/27 05:32:52;;;;;;;7.40;3.40;;;6.50;53.70;;;;;;6229456;28;20540;-79
2021/04/27 05:35:54;;;;;;;3.45;2.90;;;6.50;53.30;;;;;;6229579;28;20042;-79
2021/04/27 05:38:55;;;;;;;3.35;2.85;;;6.60;53.50;;;;;;6231473;28;20053;-80
2021/04/27 05:41:56;;;;;;;2.72;2.53;;;6.60;53.40;;;;;;6230774;28;20081;-80
2021/04/27 05:44:59;;;;;;;5.05;2.80;;;6.70;53.40;;;;;;6232000;28;20056;-78
2021/04/27 05:48:00;;;;;;;4.32;2.40;;;6.80;53.00;;;;;;6231429;28;20116;-79
2021/04/27 05:51:01;;;;;;;5.65;3.08;;;6.90;52.80;;;;;;6231233;28;20054;-80
2021/04/27 05:54:04;;;;;;;3.55;2.70;;;7.00;52.50;;;;;;6231083;28;20526;-79
2021/04/27 05:57:06;;;;;;;13.00;3.15;;;7.10;52.00;;;;;;6231101;28;20050;-79
2021/04/27 06:00:09;;;;;;;3.85;2.38;;;7.20;51.80;;;;;;6230194;28;20100;-79
2021/04/27 06:03:11;;;;;;;2.72;2.47;;;7.30;51.50;;;;;;6228979;28;20050;-77
2021/04/27 06:06:12;;;;;;;4.90;2.65;;;7.30;51.00;;;;;;6223019;28;20201;-79
2021/04/27 06:09:15;;;;;;;4.15;3.60;;;7.30;51.50;;;;;;6229624;28;20121;-77
2021/04/27 06:12:17;;;;;;;3.70;2.63;;;7.50;51.30;;;;;;6228636;28;20471;-77
2021/04/27 06:15:19;;;;;;;8.00;4.25;;;7.60;50.80;;;;;;6229418;28;20081;-79
2021/04/27 06:18:20;;;;;;;3.13;2.65;;;7.60;50.70;;;;;;6229139;28;20065;-79
2021/04/27 06:21:22;;;;;;;4.75;2.53;;;7.70;50.70;;;;;;6229350;28;20132;-77
2021/04/27 06:24:24;;;;;;;3.05;2.72;;;7.80;50.20;;;;;;6229168;28;20053;-79
2021/04/27 06:27:28;;;;;;;6.45;2.47;;;7.90;50.10;;;;;;6229507;28;20118;-79
2021/04/27 06:30:30;;;;;;;3.85;2.45;;;8.00;49.40;;;;;;6228840;28;20049;-79
2021/04/27 06:33:32;;;;;;;3.22;2.28;;;8.10;49.40;;;;;;6228959;28;20125;-78
2021/04/27 06:36:34;;;;;;;2.08;1.88;;;8.20;49.50;;;;;;6229521;28;20045;-79
2021/04/27 06:39:35;;;;;;;4.63;3.08;;;8.40;49.50;;;;;;6225362;28;20074;-78
2021/04/27 06:42:37;;;;;;;4.30;2.45;;;8.40;49.00;;;;;;6228653;28;20050;-77
2021/04/27 06:45:39;;;;;;;3.47;2.55;;;8.50;48.90;;;;;;6227535;28;20049;-78
2021/04/27 06:48:40;;;;;;;9.40;3.35;;;8.60;48.70;;;;;;6227802;28;20069;-78
2021/04/27 06:51:41;;;;;;;5.40;2.50;;;8.70;48.20;;;;;;6229778;28;20423;-78
2021/04/27 06:54:43;;;;;;;2.60;1.83;;;8.90;48.10;;;;;;6229377;28;20065;-78
2021/04/27 06:57:44;;;;;;;6.00;3.30;;;9.00;47.10;;;;;;6224970;28;20132;-76
2021/04/27 07:00:46;;;;;;;6.10;3.55;;;9.00;47.50;;;;;;6222641;28;20077;-76
2021/04/27 07:03:48;;;;;;;6.97;3.15;;;9.20;47.90;;;;;;6223055;28;20077;-78
2021/04/27 07:06:50;;;;;;;2.95;2.65;;;9.60;46.80;;;;;;6228852;28;20057;-78
2021/04/27 07:09:51;;;;;;;3.80;2.50;;;9.80;46.10;;;;;;6230244;28;20046;-78
2021/04/27 07:12:52;;;;;;;3.20;2.90;;;9.80;45.90;;;;;;6230472;28;20076;-77
2021/04/27 07:15:55;;;;;;;2.38;2.15;;;10.20;45.60;;;;;;6231007;28;20096;-79
2021/04/27 07:18:56;;;;;;;7.40;3.88;;;10.50;44.50;;;;;;6231622;28;20104;-77
2021/04/27 07:21:57;;;;;;;3.72;2.97;;;10.70;44.40;;;;;;6230582;28;20558;-78
2021/04/27 07:24:59;;;;;;;4.30;3.03;;;11.10;43.70;;;;;;6227833;28;20081;-78
2021/04/27 07:28:00;;;;;;;6.43;4.75;;;11.70;51.70;;;;;;6227709;28;20129;-78
2021/04/27 07:31:02;;;;;;;4.68;2.53;;;12.50;61.30;;;;;;6226055;28;20050;-76
2021/04/27 07:34:04;;;;;;;3.15;2.80;;;12.30;45.70;;;;;;6225027;28;20123;-77
2021/04/27 07:37:05;;;;;;;3.55;2.67;;;12.10;40.90;;;;;;6225253;28;20042;-78
2021/04/27 07:40:09;;;;;;;3.42;3.05;;;11.90;41.30;;;;;;6207268;28;20049;-75
2021/04/27 07:43:10;;;;;;;4.60;3.28;;;11.90;41.50;;;;;;6201055;28;20523;-78
2021/04/27 07:46:12;;;;;;;5.50;2.75;;;11.80;41.20;;;;;;6203461;28;20046;-77
2021/04/27 07:49:14;;;;;;;6.38;2.85;;;11.90;41.50;;;;;;6204644;28;20046;-77
2021/04/27 07:52:15;;;;;;;9.75;7.80;;;12.10;40.70;;;;;;6208044;28;20077;-79
2021/04/27 07:55:17;;;;;;;4.95;3.53;;;12.00;41.70;;;;;;6206359;28;20085;-77
2021/04/27 07:58:18;;;;;;;4.63;3.58;;;12.60;42.80;;;;;;6207762;28;20079;-76
2021/04/27 08:01:20;;;;;;;3.45;2.60;;;12.80;40.30;;;;;;6207356;28;20659;-78
2021/04/27 08:04:22;;;;;;;8.50;2.88;;;13.20;39.80;;;;;;6213015;28;20054;-77
2021/04/27 08:07:23;;;;;;;6.30;3.45;;;13.40;38.80;;;;;;6210831;28;20086;-77
2021/04/27 08:10:25;;;;;;;5.45;3.90;;;13.10;39.80;;;;;;6210873;28;20050;-76
2021/04/27 08:13:26;;;;;;;7.22;3.58;;;13.30;40.40;;;;;;6220314;28;20100;-76
2021/04/27 08:16:29;;;;;;;5.95;2.65;;;13.40;39.30;;;;;;6238480;28;20066;-79
2021/04/27 08:19:30;;;;;;;5.20;2.75;;;13.60;39.20;;;;;;6241126;28;20077;-78
2021/04/27 08:22:31;;;;;;;5.05;2.92;;;13.80;41.40;;;;;;6240000;28;20535;-78
2021/04/27 08:25:33;;;;;;;4.03;3.20;;;13.60;41.00;;;;;;6240808;28;20081;-78
2021/04/27 08:28:34;;;;;;;7.03;3.20;;;13.70;40.70;;;;;;6241168;28;20073;-79
2021/04/27 08:31:36;;;;;;;6.28;3.00;;;13.60;40.40;;;;;;6243140;28;20054;-77
2021/04/27 08:34:38;;;;;;;4.00;2.92;;;13.60;38.80;;;;;;6243117;28;20053;-79
2021/04/27 08:37:40;;;;;;;4.60;3.47;;;13.90;38.40;;;;;;6243667;28;20052;-76
2021/04/27 08:40:41;;;;;;;5.78;3.40;;;13.90;37.60;;;;;;6239620;28;20530;-78
2021/04/27 08:43:43;;;;;;;4.53;3.70;;;13.70;38.80;;;;;;6235946;28;20136;-78
2021/04/27 08:46:45;;;;;;;4.15;2.60;;;13.40;38.80;;;;;;6242423;28;20088;-78
2021/04/27 08:49:46;;;;;;;5.57;3.40;;;13.70;39.20;;;;;;6239008;28;20070;-77
2021/04/27 08:52:48;;;;;;;5.97;3.63;;;13.70;38.10;;;;;;6266671;23;20049;-76
2021/04/27 08:55:50;;;;;;;5.35;3.70;;;13.50;39.30;;;;;;6225241;28;20057;-77
2021/04/27 08:58:52;;;;;;;7.28;3.63;;;13.90;38.80;;;;;;6224993;28;20411;-76
2021/04/27 09:01:54;;;;;;;12.18;4.63;;;13.90;38.20;;;;;;6224762;28;20073;-76
2021/04/27 09:04:55;;;;;;;5.80;4.10;;;13.80;38.30;;;;;;6224891;28;20125;-77
2021/04/27 09:07:58;;;;;;;7.70;4.93;;;13.80;39.00;;;;;;6225075;28;20125;-76
2021/04/27 09:11:00;;;;;;;5.78;3.97;;;14.00;38.70;;;;;;6224700;28;20487;-76
2021/04/27 09:14:16;;;;;;;7.05;4.22;;;14.10;38.10;;;;;;6224482;28;20400;-77
2021/04/27 09:17:18;;;;;;;5.65;5.07;;;13.90;38.50;;;;;;6224726;28;20089;-75
2021/04/27 09:20:20;;;;;;;6.22;3.55;;;13.90;38.80;;;;;;6224208;28;20125;-74
2021/04/27 09:23:21;;;;;;;5.18;3.83;;;14.40;37.80;;;;;;6224667;28;20149;-74
2021/04/27 09:26:23;;;;;;;7.85;5.05;;;14.60;37.20;;;;;;6224372;28;20128;-75
2021/04/27 09:29:33;;;;;;;6.10;3.88;;;14.60;37.60;;;;;;6224180;28;20041;-75
2021/04/27 09:32:38;;;;;;;4.95;3.80;;;15.00;37.50;;;;;;6223959;28;20121;-74
2021/04/27 09:35:41;;;;;;;7.35;4.70;;;15.40;37.00;;;;;;6224060;28;20168;-75
2021/04/27 09:38:43;;;;;;;5.18;4.10;;;15.60;35.90;;;;;;6223939;28;20056;-74
2021/04/27 09:41:56;;;;;;;10.10;4.63;;;15.60;36.30;;;;;;6223686;28;20452;-75
2021/04/27 09:44:58;;;;;;;5.15;3.88;;;15.90;35.80;;;;;;6223844;28;20588;-74
2021/04/27 09:48:00;;;;;;;7.35;4.82;;;15.90;35.80;;;;;;6223921;28;20073;-75
2021/04/27 09:51:19;;;;;;;4.72;3.65;;;15.70;35.80;;;;;;6223488;28;20128;-75
2021/04/27 09:54:20;;;;;;;8.82;4.78;;;15.80;35.50;;;;;;6223525;28;20054;-74
2021/04/27 09:57:25;;;;;;;8.82;6.25;;;15.90;35.70;;;;;;6223492;28;20054;-74
2021/04/27 10:00:32;;;;;;;4.50;4.05;;;16.10;34.80;;;;;;6223491;28;20045;-75
2021/04/27 10:03:36;;;;;;;9.60;5.13;;;16.10;34.90;;;;;;6223343;28;20065;-75
2021/04/27 10:06:41;;;;;;;6.22;5.30;;;15.90;35.50;;;;;;6224349;28;20100;-75
2021/04/27 10:09:43;;;;;;;17.17;6.63;;;16.10;36.00;;;;;;6223236;28;20172;-75
2021/04/27 10:12:46;;;;;;;6.10;4.53;;;16.50;35.40;;;;;;6219626;28;20100;-74
2021/04/27 10:15:50;;;;;;;5.50;4.22;;;16.40;34.80;;;;;;6199055;28;20058;-75
2021/04/27 10:18:54;;;;;;;7.28;4.45;;;16.40;35.00;;;;;;6200186;28;20054;-75
2021/04/27 10:21:56;;;;;;;7.40;4.38;;;16.60;34.70;;;;;;6198601;28;20046;-75
2021/04/27 10:24:58;;;;;;;12.15;4.65;;;16.60;34.50;;;;;;6198614;28;20046;-74
2021/04/27 10:28:01;;;;;;;5.43;4.38;;;16.60;34.00;;;;;;6198727;28;20112;-75
2021/04/27 10:31:15;;;;;;;6.68;5.28;;;16.70;34.90;;;;;;6198433;28;20061;-75
2021/04/27 10:34:18;;;;;;;7.45;4.95;;;16.50;34.40;;;;;;6198373;28;20133;-75
2021/04/27 10:37:20;;;;;;;6.63;4.72;;;16.50;35.30;;;;;;6198185;28;20051;-75
2021/04/27 10:40:43;;;;;;;5.93;5.00;;;16.70;35.10;;;;;;6198195;28;20052;-74
2021/04/27 10:43:59;;;;;;;7.68;5.13;;;17.10;34.00;;;;;;6198615;28;20133;-75
2021/04/27 10:47:02;;;;;;;5.38;4.32;;;17.00;34.10;;;;;;6199579;28;20096;-76
2021/04/27 10:50:06;;;;;;;5.50;4.75;;;16.70;33.90;;;;;;6198199;28;20503;-76
2021/04/27 10:53:29;;;;;;;6.18;4.82;;;17.00;34.30;;;;;;6197758;28;20097;-76
2021/04/27 10:56:36;;;;;;;9.38;5.05;;;17.20;33.20;;;;;;6198008;28;20470;-75
2021/04/27 10:59:50;;;;;;;7.43;4.95;;;17.10;32.90;;;;;;6197800;28;20089;-76
2021/04/27 11:03:16;;;;;;;7.25;4.88;;;17.00;33.20;;;;;;6198258;28;20057;-76
2021/04/27 11:06:19;;;;;;;6.95;4.97;;;17.40;33.60;;;;;;6197732;28;20053;-76
2021/04/27 11:09:20;;;;;;;7.88;5.50;;;17.60;32.40;;;;;;6197475;28;20073;-76
2021/04/27 11:12:31;;;;;;;6.55;4.38;;;17.70;32.70;;;;;;6197475;28;20128;-75
2021/04/27 11:15:33;;;;;;;11.10;4.80;;;17.70;31.90;;;;;;6222104;28;20057;-76
2021/04/27 11:18:35;;;;;;;5.90;5.35;;;17.50;32.20;;;;;;6222024;28;20131;-76
2021/04/27 11:21:37;;;;;;;6.43;4.97;;;17.60;32.50;;;;;;6222085;28;20085;-76
2021/04/27 11:24:40;;;;;;;9.88;5.68;;;17.90;31.30;;;;;;6221262;28;20123;-76
2021/04/27 11:27:42;;;;;;;7.38;6.10;;;18.20;31.80;;;;;;6221747;28;20046;-76
2021/04/27 11:30:43;;;;;;;5.97;5.25;;;18.70;31.10;;;;;;6222156;28;20092;-75
2021/04/27 11:33:53;;;;;;;10.52;5.82;;;19.00;30.20;;;;;;6221501;28;20132;-76
2021/04/27 11:36:58;;;;;;;8.93;5.28;;;19.00;31.10;;;;;;6222044;28;20073;-76
2021/04/27 11:40:12;;;;;;;8.50;5.47;;;18.90;30.00;;;;;;6221784;28;20050;-77
2021/04/27 11:43:15;;;;;;;11.73;7.18;;;18.90;30.00;;;;;;6222303;28;20108;-76
2021/04/27 11:46:16;;;;;;;8.13;6.47;;;18.80;30.40;;;;;;6222580;28;20120;-75
2021/04/27 11:49:17;;;;;;;5.88;5.00;;;18.90;29.60;;;;;;6222590;28;20270;-76
2021/04/27 11:52:40;;;;;;;8.68;5.63;;;18.80;30.00;;;;;;6221305;28;20130;-76
2021/04/27 11:55:44;;;;;;;10.05;4.40;;;18.90;29.40;;;;;;6222382;28;20057;-76
2021/04/27 11:58:46;;;;;;;6.93;5.40;;;18.90;30.10;;;;;;6209382;28;20133;-77
2021/04/27 12:01:47;;;;;;;7.22;5.10;;;18.90;29.30;;;;;;6201961;28;20074;-77
2021/04/27 12:04:49;;;;;;;5.78;4.63;;;18.90;30.00;;;;;;6198997;28;20137;-76
2021/04/27 12:07:51;;;;;;;8.18;5.47;;;18.90;30.00;;;;;;6197370;28;20141;-76
2021/04/27 12:11:14;;;;;;;11.13;5.50;;;19.00;29.60;;;;;;6197409;28;20047;-76
2021/04/27 12:14:17;;;;;;;6.68;4.70;;;19.00;29.10;;;;;;6212083;28;20050;-76
2021/04/27 12:17:29;;;;;;;12.07;5.35;;;18.90;29.40;;;;;;6221361;28;20056;-76
2021/04/27 12:20:32;;;;;;;11.35;6.40;;;18.60;30.40;;;;;;6220824;28;20050;-76
2021/04/27 12:23:34;;;;;;;8.98;7.15;;;18.70;29.30;;;;;;6221051;28;20128;-76
2021/04/27 12:26:36;;;;;;;7.57;5.35;;;18.80;29.40;;;;;;6221560;28;20054;-76
2021/04/27 12:29:40;;;;;;;10.65;5.90;;;18.80;29.30;;;;;;6220544;28;20125;-77
2021/04/27 12:32:44;;;;;;;7.20;5.68;;;18.90;29.60;;;;;;6221154;28;20046;-76
2021/04/27 12:35:52;;;;;;;8.02;5.20;;;19.20;29.20;;;;;;6223472;28;20049;-77
2021/04/27 12:38:54;;;;;;;9.65;4.85;;;19.30;28.60;;;;;;6225589;28;20060;-77
2021/04/27 12:41:58;;;;;;;7.03;5.35;;;19.40;28.80;;;;;;6224975;28;20129;-76
2021/04/27 12:45:01;;;;;;;8.73;5.85;;;19.30;28.90;;;;;;6225390;28;20170;-76
2021/04/27 12:48:05;;;;;;;9.50;4.82;;;18.90;29.20;;;;;;6224743;28;20503;-76
2021/04/27 12:51:07;;;;;;;11.32;5.53;;;18.60;29.20;;;;;;6225372;28;20092;-78
2021/04/27 12:57:36;;;;;;;8.52;6.63;;;18.60;29.70;;;;;;6341818;27;20902;-76
2021/04/27 13:00:48;;;;;;;9.02;5.95;;;18.70;29.30;;;;;;6317732;28;20126;-76
2021/04/27 13:03:56;;;;;;;11.27;4.78;;;18.70;30.00;;;;;;6346813;28;20494;-76
2021/04/27 13:06:58;;;;;;;8.25;5.47;;;18.80;29.80;;;;;;6345597;28;20485;-76
2021/04/27 13:10:03;;;;;;;8.25;5.20;;;18.80;29.40;;;;;;6342887;28;20048;-76
2021/04/27 13:13:11;;;;;;;8.48;5.63;;;18.90;30.00;;;;;;6342786;28;20075;-77
2021/04/27 13:16:14;;;;;;;8.45;5.65;;;19.00;29.40;;;;;;6342431;28;20428;-76
2021/04/27 13:19:16;;;;;;;8.05;5.20;;;18.90;29.50;;;;;;6342178;28;20543;-76
2021/04/27 13:22:20;;;;;;;6.35;5.75;;;19.00;29.50;;;;;;6342432;28;20054;-76
2021/04/27 13:25:25;;;;;;;6.75;5.05;;;19.10;29.00;;;;;;6341845;28;20051;-76
2021/04/27 13:28:31;;;;;;;8.10;6.07;;;19.30;27.90;;;;;;6342334;28;20040;-76
2021/04/27 13:31:32;;;;;;;10.45;6.50;;;19.10;28.60;;;;;;6341534;28;20112;-76
2021/04/27 13:34:34;;;;;;;6.43;4.40;;;19.20;28.60;;;;;;6342375;28;20048;-76
2021/04/27 13:37:35;;;;;;;8.35;5.72;;;19.20;29.10;;;;;;6342061;28;20054;-76
2021/04/27 13:40:38;;;;;;;6.32;5.25;;;19.20;28.80;;;;;;6341460;28;20505;-76
2021/04/27 13:43:45;;;;;;;9.07;5.07;;;19.20;28.70;;;;;;6341808;28;20063;-76
2021/04/27 13:46:46;;;;;;;8.80;6.25;;;19.20;28.70;;;;;;6341801;28;20495;-75
2021/04/27 13:49:47;;;;;;;8.02;6.32;;;19.10;28.90;;;;;;6341405;28;20051;-76
2021/04/27 13:52:49;;;;;;;9.70;6.07;;;19.20;28.70;;;;;;6341411;28;20044;-77
2021/04/27 13:55:50;;;;;;;7.15;5.70;;;19.50;28.20;;;;;;6341313;28;20084;-76
2021/04/27 13:58:52;;;;;;;10.35;5.75;;;19.90;28.00;;;;;;6341869;28;20134;-76
2021/04/27 14:01:54;;;;;;;7.05;6.18;;;19.70;27.70;;;;;;6334164;28;20044;-76
2021/04/27 14:04:55;;;;;;;8.65;5.32;;;19.60;28.00;;;;;;6341074;28;20127;-76
2021/04/27 14:07:57;;;;;;;10.02;5.43;;;19.40;28.40;;;;;;6330220;28;20570;-76
2021/04/27 14:10:59;;;;;;;11.75;5.50;;;19.60;27.90;;;;;;6324173;28;20052;-76
2021/04/27 14:14:01;;;;;;;9.27;5.10;;;19.60;28.20;;;;;;6324141;28;20040;-76
2021/04/27 14:17:03;;;;;;;11.82;6.10;;;19.60;28.30;;;;;;6324118;28;20135;-76
2021/04/27 14:20:05;;;;;;;10.10;5.68;;;19.50;27.60;;;;;;6323681;28;20044;-76
2021/04/27 14:23:08;;;;;;;6.38;5.70;;;19.40;27.60;;;;;;6325087;28;20134;-77
2021/04/27 14:26:09;;;;;;;9.63;6.80;;;19.20;27.70;;;;;;6324475;28;20048;-77
2021/04/27 14:29:12;;;;;;;9.07;5.45;;;19.10;27.90;;;;;;6324511;28;20122;-77
2021/04/27 14:32:14;;;;;;;11.43;5.97;;;19.10;27.70;;;;;;6324906;28;20050;-77
2021/04/27 14:35:16;;;;;;;8.52;5.22;;;19.20;27.80;;;;;;6325887;28;20059;-77
2021/04/27 14:38:18;;;;;;;6.55;5.00;;;19.10;27.80;;;;;;6324912;28;20036;-77
2021/04/27 14:41:20;;;;;;;8.02;5.57;;;19.00;27.90;;;;;;6324315;28;20044;-77
2021/04/27 14:44:22;;;;;;;9.65;7.32;;;;;;;;;;6324878;28;20063;-77
2021/04/27 14:47:24;;;;;;;10.45;7.10;;;19.00;27.80;;;;;;6325392;28;20075;-77
2021/04/27 14:50:27;;;;;;;6.22;5.45;;;19.10;28.30;;;;;;6324816;28;20040;-77
2021/04/27 14:53:28;;;;;;;7.47;5.95;;;19.00;28.20;;;;;;6300020;22;20479;-76
2021/04/27 14:56:30;;;;;;;9.32;7.85;;;18.90;28.20;;;;;;6273480;28;20068;-77
2021/04/27 14:59:32;;;;;;;8.10;6.30;;;18.80;28.30;;;;;;6273407;28;20545;-76
2021/04/27 15:02:35;;;;;;;7.25;6.55;;;18.80;28.40;;;;;;6269247;28;20091;-77
2021/04/27 15:05:36;;;;;;;10.05;4.80;;;18.80;28.40;;;;;;6273221;28;20131;-77
2021/04/27 15:08:38;;;;;;;8.48;6.10;;;18.80;28.50;;;;;;6272821;28;20501;-77
2021/04/27 15:11:39;;;;;;;7.03;5.75;;;19.00;27.40;;;;;;6273650;28;20162;-76
2021/04/27 15:14:41;;;;;;;8.18;7.28;;;19.10;27.50;;;;;;6292974;28;20481;-77
2021/04/27 15:17:42;;;;;;;12.25;8.43;;;19.20;28.10;;;;;;6297909;28;20140;-77
2021/04/27 15:20:44;;;;;;;11.07;7.00;;;19.10;28.50;;;;;;6296801;28;20484;-76
2021/04/27 15:23:46;;;;;;;10.10;6.40;;;19.20;28.60;;;;;;6297950;28;20197;-75
2021/04/27 15:26:48;;;;;;;11.10;6.45;;;19.20;27.90;;;;;;6298353;28;20140;-76
2021/04/27 15:29:50;;;;;;;7.65;6.28;;;19.10;28.50;;;;;;6297301;28;20075;-75
2021/04/27 15:32:53;;;;;;;9.27;6.43;;;19.20;28.50;;;;;;6297619;28;20047;-75
2021/04/27 15:35:55;;;;;;;8.60;6.60;;;19.00;28.80;;;;;;6297573;28;20044;-76
2021/04/27 15:38:56;;;;;;;9.57;6.00;;;19.00;28.40;;;;;;6297597;28;20155;-77
2021/04/27 15:41:58;;;;;;;6.93;5.72;;;19.00;28.40;;;;;;6297535;28;20052;-77
2021/04/27 15:45:01;;;;;;;10.55;6.30;;;18.90;28.50;;;;;;6297602;28;20079;-77
2021/04/27 15:48:02;;;;;;;8.05;6.13;;;18.80;28.80;;;;;;6297501;28;20068;-76
2021/04/27 15:51:04;;;;;;;5.40;4.55;;;18.90;29.10;;;;;;6297176;28;20055;-75
2021/04/27 15:54:06;;;;;;;11.10;5.70;;;18.80;28.40;;;;;;6296919;28;20075;-75
2021/04/27 15:57:07;;;;;;;7.97;5.70;;;18.70;28.60;;;;;;6297282;28;20135;-75
2021/04/27 16:00:12;;;;;;;7.97;6.07;;;18.60;28.70;;;;;;6296565;28;20132;-78